createdAt,value
2022-10-19T00:01:15.504Z,4.57
2022-10-19T00:03:43.613Z,4.45
2022-10-19T00:06:34.650Z,5.00
2022-10-19T00:09:08.811Z,4.70
2022-10-19T00:11:39.448Z,5.43
2022-10-19T00:14:06.513Z,4.90
2022-10-19T00:16:35.899Z,5.10
2022-10-19T00:19:05.712Z,4.40
2022-10-19T00:21:32.665Z,5.03
2022-10-19T00:23:59.141Z,4.68
2022-10-19T00:26:25.605Z,5.55
2022-10-19T00:28:56.060Z,4.47
2022-10-19T00:31:22.928Z,4.93
2022-10-19T00:33:49.426Z,4.97
2022-10-19T00:36:21.300Z,4.90
2022-10-19T00:38:48.203Z,4.60
2022-10-19T00:41:15.570Z,5.32
2022-10-19T00:43:58.837Z,5.30
2022-10-19T00:46:27.084Z,5.28
2022-10-19T00:49:00.233Z,4.90
2022-10-19T00:51:29.261Z,4.55
2022-10-19T00:53:56.451Z,4.65
2022-10-19T00:56:23.472Z,4.68
2022-10-19T00:58:50.211Z,4.75
2022-10-19T01:01:19.449Z,5.30
2022-10-19T01:03:46.558Z,5.35
2022-10-19T01:06:15.652Z,5.57
2022-10-19T01:08:42.041Z,6.05
2022-10-19T01:11:32.656Z,5.40
2022-10-19T01:14:25.102Z,5.97
2022-10-19T01:17:33.479Z,4.75
2022-10-19T01:20:29.297Z,5.70
2022-10-19T01:23:04.645Z,5.03
2022-10-19T01:25:51.843Z,5.32
2022-10-19T01:28:30.177Z,5.47
2022-10-19T01:31:07.122Z,4.88
2022-10-19T01:33:52.173Z,4.82
2022-10-19T01:36:40.583Z,5.00
2022-10-19T01:39:17.589Z,4.35
2022-10-19T01:42:07.245Z,4.20
2022-10-19T01:45:00.242Z,4.93
2022-10-19T01:47:36.799Z,4.68
2022-10-19T01:50:13.925Z,4.53
2022-10-19T01:52:41.686Z,4.80
2022-10-19T01:55:12.842Z,5.28
2022-10-19T01:57:45.774Z,5.00
2022-10-19T02:00:14.826Z,5.50
2022-10-19T02:02:45.592Z,4.80
2022-10-19T02:05:13.218Z,4.95
2022-10-19T02:07:44.098Z,4.95
2022-10-19T02:10:10.866Z,3.85
2022-10-19T02:12:38.191Z,4.50
2022-10-19T02:15:10.721Z,4.47
2022-10-19T02:17:43.641Z,4.03
2022-10-19T02:20:10.379Z,4.25
2022-10-19T02:22:37.175Z,4.47
2022-10-19T02:25:04.759Z,4.20
2022-10-19T02:27:31.214Z,4.53
2022-10-19T02:29:57.687Z,3.80
2022-10-19T02:32:24.195Z,3.50
2022-10-19T02:34:50.691Z,3.75
2022-10-19T02:37:19.865Z,3.70
2022-10-19T02:39:48.493Z,4.10
2022-10-19T02:42:24.871Z,3.90
2022-10-19T02:45:02.340Z,4.10
2022-10-19T02:47:35.269Z,4.60
2022-10-19T02:50:05.712Z,3.88
2022-10-19T02:52:32.179Z,3.72
2022-10-19T02:54:58.563Z,3.85
2022-10-19T02:57:25.867Z,3.90
2022-10-19T02:59:52.923Z,4.50
2022-10-19T03:02:20.702Z,3.70
2022-10-19T03:07:16.725Z,4.25
2022-10-19T03:09:43.529Z,4.10
2022-10-19T03:12:10.988Z,4.60
2022-10-19T03:14:37.371Z,5.18
2022-10-19T03:17:04.156Z,5.05
2022-10-19T03:19:31.126Z,4.55
2022-10-19T03:21:57.755Z,5.55
2022-10-19T03:24:24.218Z,5.20
2022-10-19T03:26:50.681Z,5.18
2022-10-19T03:29:17.105Z,4.82
2022-10-19T03:31:43.522Z,5.30
2022-10-19T03:34:09.878Z,5.03
2022-10-19T03:36:38.695Z,5.53
2022-10-19T03:39:08.323Z,5.00
2022-10-19T03:41:36.318Z,5.32
2022-10-19T03:44:03.399Z,4.70
2022-10-19T03:46:30.201Z,4.78
2022-10-19T03:48:56.620Z,4.75
2022-10-19T03:51:25.257Z,4.78
2022-10-19T03:54:04.204Z,4.82
2022-10-19T03:56:31.991Z,5.10
2022-10-19T03:59:00.441Z,5.38
2022-10-19T04:01:29.460Z,5.47
2022-10-19T04:03:57.740Z,4.57
2022-10-19T04:06:26.586Z,5.28
2022-10-19T04:08:53.104Z,4.70
2022-10-19T04:11:22.634Z,5.32
2022-10-19T04:13:50.519Z,5.05
2022-10-19T04:16:17.226Z,5.15
2022-10-19T04:18:43.687Z,4.68
2022-10-19T04:21:20.805Z,4.72
2022-10-19T04:23:53.864Z,5.18
2022-10-19T04:26:20.936Z,5.00
2022-10-19T04:28:47.414Z,5.00
2022-10-19T04:31:14.869Z,4.57
2022-10-19T04:33:42.023Z,4.57
2022-10-19T04:36:12.974Z,4.78
2022-10-19T04:38:42.762Z,4.43
2022-10-19T04:41:14.704Z,4.78
2022-10-19T04:43:41.420Z,4.50
2022-10-19T04:46:11.078Z,3.97
2022-10-19T04:48:38.855Z,4.50
2022-10-19T04:51:05.771Z,4.65
2022-10-19T04:53:33.145Z,4.93
2022-10-19T04:55:59.732Z,4.85
2022-10-19T04:58:27.323Z,4.88
2022-10-19T05:00:53.776Z,5.30
2022-10-19T05:03:20.282Z,5.60
2022-10-19T05:05:46.675Z,5.70
2022-10-19T05:08:13.098Z,4.95
2022-10-19T05:10:40.530Z,4.82
2022-10-19T05:13:09.494Z,5.72
2022-10-19T05:15:35.904Z,5.57
2022-10-19T05:18:02.393Z,5.28
2022-10-19T05:20:30.866Z,5.15
2022-10-19T05:22:59.119Z,4.70
2022-10-19T05:25:26.657Z,4.60
2022-10-19T05:27:53.604Z,5.20
2022-10-19T05:30:21.848Z,4.70
2022-10-19T05:32:48.877Z,4.97
2022-10-19T05:35:17.593Z,4.60
2022-10-19T05:37:46.475Z,5.85
2022-10-19T05:40:12.927Z,6.28
2022-10-19T05:42:40.422Z,6.82
2022-10-19T05:45:07.222Z,6.95
2022-10-19T05:47:35.125Z,6.68
2022-10-19T05:50:01.811Z,7.13
2022-10-19T05:52:42.455Z,6.25
2022-10-19T05:55:09.477Z,7.10
2022-10-19T05:57:39.143Z,6.93
2022-10-19T06:00:05.881Z,7.25
2022-10-19T06:02:32.289Z,7.70
2022-10-19T06:04:58.679Z,6.93
2022-10-19T06:07:25.068Z,7.85
2022-10-19T06:09:51.479Z,6.95
2022-10-19T06:12:24.265Z,7.03
2022-10-19T06:14:51.579Z,6.10
2022-10-19T06:17:17.998Z,6.25
2022-10-19T06:19:44.424Z,6.53
2022-10-19T06:22:10.825Z,6.15
2022-10-19T06:24:37.336Z,6.97
2022-10-19T06:27:03.809Z,6.30
2022-10-19T06:29:30.192Z,6.53
2022-10-19T06:31:56.732Z,7.22
2022-10-19T06:34:23.408Z,6.78
2022-10-19T06:36:49.921Z,6.00
2022-10-19T06:39:16.399Z,6.18
2022-10-19T06:41:42.799Z,5.70
2022-10-19T06:44:09.662Z,6.88
2022-10-19T06:46:36.082Z,6.25
2022-10-19T06:49:02.893Z,6.25
2022-10-19T06:51:32.267Z,6.65
2022-10-19T06:53:58.700Z,6.38
2022-10-19T06:56:26.625Z,6.50
2022-10-19T06:58:53.997Z,6.60
2022-10-19T07:01:22.545Z,7.05
2022-10-19T07:03:51.791Z,6.80
2022-10-19T07:06:18.275Z,7.43
2022-10-19T07:08:44.837Z,7.78
2022-10-19T07:11:16.231Z,7.25
2022-10-19T07:13:42.716Z,8.50
2022-10-19T07:16:16.149Z,8.93
2022-10-19T07:18:46.287Z,10.13
2022-10-19T07:21:15.105Z,10.27
2022-10-19T07:23:42.811Z,9.10
2022-10-19T07:26:18.339Z,9.38
2022-10-19T07:28:47.155Z,9.00
2022-10-19T07:31:17.840Z,9.93
2022-10-19T07:33:44.791Z,10.05
2022-10-19T07:36:13.615Z,9.50
2022-10-19T07:38:40.613Z,8.90
2022-10-19T07:41:15.871Z,8.23
2022-10-19T07:43:43.813Z,7.80
2022-10-19T07:46:19.112Z,8.60
2022-10-19T07:48:45.945Z,9.40
2022-10-19T07:51:15.021Z,10.40
2022-10-19T07:53:42.055Z,9.82
2022-10-19T07:56:20.076Z,9.93
2022-10-19T07:58:47.049Z,10.48
2022-10-19T08:01:18.581Z,9.65
2022-10-19T08:06:32.832Z,10.23
2022-10-19T08:08:59.473Z,9.27
2022-10-19T08:11:32.541Z,9.18
2022-10-19T08:13:59.307Z,8.48
2022-10-19T08:16:27.345Z,8.07
2022-10-19T08:18:57.805Z,7.20
2022-10-19T08:21:25.731Z,8.00
2022-10-19T08:23:52.159Z,7.80
2022-10-19T08:26:18.567Z,7.95
2022-10-19T08:28:45.029Z,7.80
2022-10-19T08:31:18.628Z,6.85
2022-10-19T08:33:45.850Z,6.78
2022-10-19T08:36:14.327Z,7.13
2022-10-19T08:38:43.521Z,7.25
2022-10-19T08:41:44.108Z,7.13
2022-10-19T08:44:22.444Z,6.88
2022-10-19T08:47:02.591Z,6.95
2022-10-19T08:49:31.655Z,7.43
2022-10-19T08:52:04.031Z,6.68
2022-10-19T08:54:40.499Z,6.82
2022-10-19T09:00:16.906Z,7.68
2022-10-19T09:03:11.934Z,8.05
2022-10-19T09:06:06.058Z,6.63
2022-10-19T09:08:35.366Z,6.97
2022-10-19T09:11:01.902Z,7.30
2022-10-19T09:14:04.096Z,6.85
2022-10-19T09:16:31.618Z,6.63
2022-10-19T09:18:58.313Z,6.82
2022-10-19T09:21:37.986Z,6.72
2022-10-19T09:24:42.461Z,5.82
2022-10-19T09:27:20.834Z,6.55
2022-10-19T09:30:04.123Z,6.65
2022-10-19T09:32:39.462Z,6.53
2022-10-19T09:35:18.214Z,6.95
2022-10-19T09:37:48.433Z,6.93
2022-10-19T09:40:22.273Z,6.75
2022-10-19T09:42:56.890Z,6.68
2022-10-19T09:45:46.038Z,6.50
2022-10-19T09:48:23.998Z,6.78
2022-10-19T09:50:59.850Z,6.80
2022-10-19T09:53:28.041Z,6.28
2022-10-19T09:55:58.951Z,6.55
2022-10-19T09:58:30.570Z,6.47
2022-10-19T10:01:01.226Z,6.45
2022-10-19T10:03:43.443Z,6.93
2022-10-19T10:06:14.647Z,6.07
2022-10-19T10:08:50.754Z,6.63
2022-10-19T10:11:32.947Z,7.00
2022-10-19T10:14:09.137Z,6.47
2022-10-19T10:16:36.537Z,6.78
2022-10-19T10:19:07.098Z,6.18
2022-10-19T10:21:46.110Z,6.47
2022-10-19T10:24:21.306Z,6.63
2022-10-19T10:26:50.716Z,7.80
2022-10-19T10:29:20.232Z,7.30
2022-10-19T10:31:52.368Z,7.38
2022-10-19T10:34:37.937Z,7.97
2022-10-19T10:37:26.781Z,7.40
2022-10-19T10:39:57.728Z,6.63
2022-10-19T10:42:32.584Z,7.07
2022-10-19T10:44:59.781Z,7.18
2022-10-19T10:47:28.392Z,7.78
2022-10-19T10:49:58.746Z,7.25
2022-10-19T10:52:27.852Z,7.50
2022-10-19T10:55:04.496Z,6.57
2022-10-19T10:57:37.472Z,7.25
2022-10-19T11:00:08.023Z,7.65
2022-10-19T11:02:46.588Z,7.57
2022-10-19T11:05:19.534Z,7.80
2022-10-19T11:07:49.806Z,7.80
2022-10-19T11:10:28.119Z,8.48
2022-10-19T11:13:03.559Z,8.43
2022-10-19T11:15:54.969Z,8.10
2022-10-19T11:18:35.907Z,7.07
2022-10-19T11:21:35.243Z,8.00
2022-10-19T11:24:25.591Z,8.73
2022-10-19T11:27:27.451Z,7.90
2022-10-19T11:29:59.530Z,8.98
2022-10-19T11:32:50.812Z,8.88
2022-10-19T11:35:23.189Z,7.95
2022-10-19T11:38:21.140Z,7.90
2022-10-19T11:41:16.955Z,8.15
2022-10-19T11:43:58.717Z,7.75
2022-10-19T11:46:38.502Z,8.38
2022-10-19T11:49:20.803Z,8.75
2022-10-19T11:51:57.442Z,7.75
2022-10-19T11:54:35.683Z,8.52
2022-10-19T11:57:25.585Z,8.43
2022-10-19T12:00:14.257Z,8.00
2022-10-19T12:03:04.085Z,8.10
2022-10-19T12:06:04.472Z,8.02
2022-10-19T12:09:07.298Z,7.22
2022-10-19T12:11:53.050Z,7.75
2022-10-19T12:14:26.790Z,7.15
2022-10-19T12:16:58.521Z,7.78
2022-10-19T12:19:29.288Z,7.80
2022-10-19T12:22:02.240Z,7.97
2022-10-19T12:24:30.459Z,7.28
2022-10-19T12:26:58.690Z,7.80
2022-10-19T12:29:29.471Z,8.40
2022-10-19T12:31:57.637Z,7.85
2022-10-19T12:34:47.003Z,7.82
2022-10-19T12:37:19.229Z,8.75
2022-10-19T12:39:53.361Z,9.63
2022-10-19T12:42:36.859Z,8.90
2022-10-19T12:45:25.261Z,8.55
2022-10-19T12:48:25.532Z,8.63
2022-10-19T12:50:56.675Z,9.32
2022-10-19T12:53:30.520Z,9.70
2022-10-19T12:56:21.708Z,9.82
2022-10-19T12:59:01.469Z,10.82
2022-10-19T13:01:34.061Z,9.80
2022-10-19T13:04:15.708Z,10.23
2022-10-19T13:07:01.347Z,11.07
2022-10-19T13:09:27.686Z,9.65
2022-10-19T13:12:19.728Z,9.90
2022-10-19T13:14:51.309Z,9.80
2022-10-19T13:17:46.457Z,10.27
2022-10-19T13:20:16.180Z,11.38
2022-10-19T13:22:50.156Z,15.48
2022-10-19T13:25:16.838Z,9.75
2022-10-19T13:27:44.860Z,9.75
2022-10-19T13:30:39.215Z,8.70
2022-10-19T13:33:33.324Z,9.43
2022-10-19T13:35:59.742Z,9.45
2022-10-19T13:38:30.222Z,8.88
2022-10-19T13:41:01.701Z,8.93
2022-10-19T13:43:34.332Z,9.43
2022-10-19T13:46:14.520Z,9.93
2022-10-19T13:48:50.042Z,9.85
2022-10-19T13:51:28.507Z,9.75
2022-10-19T13:54:08.568Z,9.85
2022-10-19T13:56:53.710Z,10.02
2022-10-19T13:59:38.104Z,9.90
2022-10-19T14:02:26.421Z,9.20
2022-10-19T14:05:24.823Z,9.93
2022-10-19T14:08:08.450Z,10.27
2022-10-19T14:10:56.223Z,9.60
2022-10-19T14:13:22.626Z,10.05
2022-10-19T14:15:55.020Z,10.18
2022-10-19T14:18:32.875Z,9.60
2022-10-19T14:21:05.792Z,10.90
2022-10-19T14:23:41.312Z,9.55
2022-10-19T14:26:14.665Z,10.13
2022-10-19T14:28:42.997Z,10.95
2022-10-19T14:31:18.445Z,9.63
2022-10-19T14:33:51.418Z,10.60
2022-10-19T14:36:20.729Z,10.27
2022-10-19T14:38:48.801Z,10.20
2022-10-19T14:41:28.904Z,10.00
2022-10-19T14:44:00.378Z,10.35
2022-10-19T14:46:32.723Z,10.48
2022-10-19T14:49:05.942Z,8.55
2022-10-19T14:51:45.331Z,10.85
2022-10-19T14:54:23.381Z,8.75
2022-10-19T14:56:57.559Z,9.70
2022-10-19T14:59:47.172Z,9.80
2022-10-19T15:02:31.320Z,9.30
2022-10-19T15:05:00.427Z,9.30
2022-10-19T15:07:35.458Z,8.80
2022-10-19T15:10:06.320Z,8.00
2022-10-19T15:12:40.126Z,8.07
2022-10-19T15:15:15.016Z,8.85
2022-10-19T15:17:55.418Z,8.77
2022-10-19T15:20:24.975Z,9.48
2022-10-19T15:22:51.771Z,9.05
2022-10-19T15:25:35.227Z,9.15
2022-10-19T15:28:41.654Z,8.88
2022-10-19T15:31:14.386Z,8.23
2022-10-19T15:33:45.282Z,8.80
2022-10-19T15:36:19.605Z,7.72
2022-10-19T15:38:48.422Z,8.23
2022-10-19T15:41:28.673Z,8.48
2022-10-19T15:44:00.957Z,8.07
2022-10-19T15:46:33.003Z,8.23
2022-10-19T15:49:20.961Z,8.25
2022-10-19T15:51:48.282Z,7.35
2022-10-19T15:54:17.259Z,7.60
2022-10-19T15:56:51.816Z,8.10
2022-10-19T15:59:21.568Z,8.20
2022-10-19T16:01:53.670Z,7.95
2022-10-19T16:04:22.511Z,7.63
2022-10-19T16:06:48.899Z,7.75
2022-10-19T16:09:20.724Z,7.05
2022-10-19T16:11:47.972Z,8.40
2022-10-19T16:14:14.515Z,7.43
2022-10-19T16:16:42.013Z,7.60
2022-10-19T16:19:10.388Z,6.68
2022-10-19T16:21:37.509Z,7.35
2022-10-19T16:24:04.351Z,7.03
2022-10-19T16:26:32.405Z,7.40
2022-10-19T16:29:01.182Z,7.05
2022-10-19T16:31:29.962Z,7.07
2022-10-19T16:33:56.511Z,6.80
2022-10-19T16:36:23.175Z,7.00
2022-10-19T16:38:49.720Z,6.95
2022-10-19T16:41:16.902Z,6.78
2022-10-19T16:43:43.877Z,7.53
2022-10-19T16:46:11.095Z,6.93
2022-10-19T16:48:38.284Z,5.93
2022-10-19T16:51:07.968Z,6.85
2022-10-19T16:53:35.197Z,8.57
2022-10-19T16:56:06.962Z,8.00
2022-10-19T16:58:33.543Z,9.52
2022-10-19T17:01:01.482Z,8.52
2022-10-19T17:03:30.879Z,8.23
2022-10-19T17:05:57.289Z,8.20
2022-10-19T17:11:35.347Z,6.95
2022-10-19T17:14:05.146Z,7.63
2022-10-19T17:16:39.007Z,8.30
2022-10-19T17:19:07.066Z,8.45
2022-10-19T17:21:38.351Z,7.68
2022-10-19T17:24:08.200Z,10.55
2022-10-19T17:26:38.236Z,9.60
2022-10-19T17:29:06.668Z,8.70
2022-10-19T17:31:33.349Z,8.88
2022-10-19T17:34:00.731Z,8.38
2022-10-19T17:36:31.762Z,7.80
2022-10-19T17:39:01.263Z,7.53
2022-10-19T17:41:29.027Z,6.82
2022-10-19T17:43:55.654Z,8.05
2022-10-19T17:46:25.523Z,8.60
2022-10-19T17:48:52.014Z,9.05
2022-10-19T17:51:21.291Z,8.32
2022-10-19T17:53:49.435Z,9.07
2022-10-19T17:56:18.765Z,9.15
2022-10-19T17:58:45.469Z,9.07
2022-10-19T18:01:12.499Z,8.98
2022-10-19T18:03:39.586Z,9.82
2022-10-19T18:06:09.852Z,9.45
2022-10-19T18:08:39.747Z,9.38
2022-10-19T18:11:09.071Z,9.43
2022-10-19T18:16:13.486Z,8.73
2022-10-19T18:18:42.686Z,9.15
2022-10-19T18:21:13.579Z,9.13
2022-10-19T18:23:40.714Z,9.52
